<?xml version="1.0" encoding="UTF-8" standalone="no" ?>
<gpx xmlns="http://www.topografix.com/GPX/1/1" xmlns:xsi="http://www.w3.org/2001/XMLSchema-instance" xsi:schemaLocation="http://www.topografix.com/GPX/1/1 http://www.topografix.com/GPX/1/1/gpx.xsd" version="1.1" creator="VisuGPX - https://www.visugpx.com">
  <metadata>
    <name>rdo_2023_etape2</name>
  </metadata>
  <trk>
    <name><![CDATA[RDO2023 - Etape2-16601803]]></name>
    <extensions>
      <line xmlns="http://www.topografix.com/GPX/gpx_style/0/2">
        <color>0000FF</color>
        <width>4</width>
      </line>
    </extensions>
    <trkseg>
      <trkpt lat="49.64282" lon="1.84561">
        <ele>197</ele>
        <time>2023-05-22T13:14:14Z</time>
      </trkpt>
      <trkpt lat="49.64245" lon="1.84564">
        <ele>197</ele>
        <time>2023-05-22T13:14:21Z</time>
      </trkpt>
      <trkpt lat="49.64142" lon="1.84582">
        <ele>196</ele>
        <time>2023-05-22T13:14:39Z</time>
      </trkpt>
      <trkpt lat="49.63994" lon="1.84633">
        <ele>198</ele>
        <time>2023-05-22T13:15:06Z</time>
      </trkpt>
      <trkpt lat="49.63953" lon="1.84684">
        <ele>198</ele>
        <time>2023-05-22T13:15:15Z</time>
      </trkpt>
      <trkpt lat="49.63862" lon="1.84807">
        <ele>196</ele>
        <time>2023-05-22T13:15:37Z</time>
      </trkpt>
      <trkpt lat="49.63627" lon="1.84812">
        <ele>194</ele>
        <time>2023-05-22T13:16:19Z</time>
      </trkpt>
      <trkpt lat="49.63328" lon="1.84904">
        <ele>191</ele>
        <time>2023-05-22T13:17:13Z</time>
      </trkpt>
      <trkpt lat="49.62916" lon="1.84881">
        <ele>185</ele>
        <time>2023-05-22T13:18:26Z</time>
      </trkpt>
      <trkpt lat="49.62876" lon="1.84895">
        <ele>188</ele>
        <time>2023-05-22T13:18:34Z</time>
      </trkpt>
      <trkpt lat="49.62759" lon="1.8495">
        <ele>191</ele>
        <time>2023-05-22T13:18:55Z</time>
      </trkpt>
      <trkpt lat="49.62634" lon="1.8495">
        <ele>193</ele>
        <time>2023-05-22T13:19:18Z</time>
      </trkpt>
      <trkpt lat="49.6253" lon="1.84904">
        <ele>181</ele>
        <time>2023-05-22T13:19:37Z</time>
      </trkpt>
      <trkpt lat="49.62274" lon="1.84767">
        <ele>180</ele>
        <time>2023-05-22T13:20:25Z</time>
      </trkpt>
      <trkpt lat="49.62052" lon="1.84746">
        <ele>183</ele>
        <time>2023-05-22T13:21:05Z</time>
      </trkpt>
      <trkpt lat="49.61971" lon="1.84793">
        <ele>182</ele>
        <time>2023-05-22T13:21:20Z</time>
      </trkpt>
      <trkpt lat="49.61916" lon="1.8481">
        <ele>183</ele>
        <time>2023-05-22T13:21:30Z</time>
      </trkpt>
      <trkpt lat="49.61829" lon="1.84801">
        <ele>182</ele>
        <time>2023-05-22T13:21:46Z</time>
      </trkpt>
      <trkpt lat="49.61738" lon="1.84853">
        <ele>183</ele>
        <time>2023-05-22T13:22:03Z</time>
      </trkpt>
      <trkpt lat="49.61692" lon="1.8484">
        <ele>182</ele>
        <time>2023-05-22T13:22:11Z</time>
      </trkpt>
      <trkpt lat="49.61607" lon="1.84771">
        <ele>180</ele>
        <time>2023-05-22T13:22:28Z</time>
      </trkpt>
      <trkpt lat="49.61509" lon="1.8465">
        <ele>180</ele>
        <time>2023-05-22T13:22:51Z</time>
      </trkpt>
      <trkpt lat="49.61493" lon="1.84645">
        <ele>178</ele>
        <time>2023-05-22T13:22:53Z</time>
      </trkpt>
      <trkpt lat="49.61369" lon="1.84678">
        <ele>177</ele>
        <time>2023-05-22T13:23:16Z</time>
      </trkpt>
      <trkpt lat="49.6132" lon="1.84688">
        <ele>177</ele>
        <time>2023-05-22T13:23:25Z</time>
      </trkpt>
      <trkpt lat="49.61305" lon="1.84691">
        <ele>176</ele>
        <time>2023-05-22T13:23:27Z</time>
      </trkpt>
      <trkpt lat="49.61026" lon="1.847">
        <ele>160</ele>
        <time>2023-05-22T13:24:17Z</time>
      </trkpt>
      <trkpt lat="49.61003" lon="1.84682">
        <ele>159</ele>
        <time>2023-05-22T13:24:22Z</time>
      </trkpt>
      <trkpt lat="49.60993" lon="1.84669">
        <ele>158</ele>
        <time>2023-05-22T13:24:24Z</time>
      </trkpt>
      <trkpt lat="49.60995" lon="1.84641">
        <ele>156</ele>
        <time>2023-05-22T13:24:27Z</time>
      </trkpt>
      <trkpt lat="49.61006" lon="1.84605">
        <ele>154</ele>
        <time>2023-05-22T13:24:32Z</time>
      </trkpt>
      <trkpt lat="49.61011" lon="1.84521">
        <ele>152</ele>
        <time>2023-05-22T13:24:41Z</time>
      </trkpt>
      <trkpt lat="49.61058" lon="1.84513">
        <ele>154</ele>
        <time>2023-05-22T13:24:50Z</time>
      </trkpt>
      <trkpt lat="49.61062" lon="1.84487">
        <ele>155</ele>
        <time>2023-05-22T13:24:53Z</time>
      </trkpt>
      <trkpt lat="49.61057" lon="1.84432">
        <ele>156</ele>
        <time>2023-05-22T13:24:59Z</time>
      </trkpt>
      <trkpt lat="49.61045" lon="1.84386">
        <ele>156</ele>
        <time>2023-05-22T13:25:05Z</time>
      </trkpt>
      <trkpt lat="49.61036" lon="1.84345">
        <ele>157</ele>
        <time>2023-05-22T13:25:10Z</time>
      </trkpt>
      <trkpt lat="49.61028" lon="1.8425">
        <ele>158</ele>
        <time>2023-05-22T13:25:21Z</time>
      </trkpt>
      <trkpt lat="49.61031" lon="1.84154">
        <ele>160</ele>
        <time>2023-05-22T13:25:32Z</time>
      </trkpt>
      <trkpt lat="49.6104" lon="1.84052">
        <ele>163</ele>
        <time>2023-05-22T13:25:44Z</time>
      </trkpt>
      <trkpt lat="49.61048" lon="1.83862">
        <ele>170</ele>
        <time>2023-05-22T13:26:06Z</time>
      </trkpt>
      <trkpt lat="49.61062" lon="1.83703">
        <ele>174</ele>
        <time>2023-05-22T13:26:25Z</time>
      </trkpt>
      <trkpt lat="49.61116" lon="1.8351">
        <ele>180</ele>
        <time>2023-05-22T13:26:49Z</time>
      </trkpt>
      <trkpt lat="49.61175" lon="1.83336">
        <ele>182</ele>
        <time>2023-05-22T13:27:11Z</time>
      </trkpt>
      <trkpt lat="49.61207" lon="1.83158">
        <ele>184</ele>
        <time>2023-05-22T13:27:33Z</time>
      </trkpt>
      <trkpt lat="49.61259" lon="1.82822">
        <ele>188</ele>
        <time>2023-05-22T13:28:13Z</time>
      </trkpt>
      <trkpt lat="49.613" lon="1.82591">
        <ele>192</ele>
        <time>2023-05-22T13:28:40Z</time>
      </trkpt>
      <trkpt lat="49.61311" lon="1.82551">
        <ele>192</ele>
        <time>2023-05-22T13:28:45Z</time>
      </trkpt>
      <trkpt lat="49.61337" lon="1.82458">
        <ele>192</ele>
        <time>2023-05-22T13:28:57Z</time>
      </trkpt>
      <trkpt lat="49.61369" lon="1.82326">
        <ele>195</ele>
        <time>2023-05-22T13:29:13Z</time>
      </trkpt>
      <trkpt lat="49.61385" lon="1.82291">
        <ele>195</ele>
        <time>2023-05-22T13:29:18Z</time>
      </trkpt>
      <trkpt lat="49.61393" lon="1.82255">
        <ele>195</ele>
        <time>2023-05-22T13:29:22Z</time>
      </trkpt>
      <trkpt lat="49.61408" lon="1.82206">
        <ele>195</ele>
        <time>2023-05-22T13:29:29Z</time>
      </trkpt>
      <trkpt lat="49.61413" lon="1.82188">
        <ele>195</ele>
        <time>2023-05-22T13:29:31Z</time>
      </trkpt>
      <trkpt lat="49.61414" lon="1.82175">
        <ele>195</ele>
        <time>2023-05-22T13:29:32Z</time>
      </trkpt>
      <trkpt lat="49.61413" lon="1.82167">
        <ele>195</ele>
        <time>2023-05-22T13:29:33Z</time>
      </trkpt>
      <trkpt lat="49.61424" lon="1.82159">
        <ele>195</ele>
        <time>2023-05-22T13:29:36Z</time>
      </trkpt>
      <trkpt lat="49.61436" lon="1.82146">
        <ele>195</ele>
        <time>2023-05-22T13:29:38Z</time>
      </trkpt>
      <trkpt lat="49.61449" lon="1.82127">
        <ele>194</ele>
        <time>2023-05-22T13:29:41Z</time>
      </trkpt>
      <trkpt lat="49.6146" lon="1.82094">
        <ele>194</ele>
        <time>2023-05-22T13:29:46Z</time>
      </trkpt>
      <trkpt lat="49.61485" lon="1.82029">
        <ele>193</ele>
        <time>2023-05-22T13:29:54Z</time>
      </trkpt>
      <trkpt lat="49.61499" lon="1.81986">
        <ele>192</ele>
        <time>2023-05-22T13:30:00Z</time>
      </trkpt>
      <trkpt lat="49.61502" lon="1.81975">
        <ele>192</ele>
        <time>2023-05-22T13:30:01Z</time>
      </trkpt>
      <trkpt lat="49.61511" lon="1.81913">
        <ele>192</ele>
        <time>2023-05-22T13:30:09Z</time>
      </trkpt>
      <trkpt lat="49.61531" lon="1.81835">
        <ele>193</ele>
        <time>2023-05-22T13:30:18Z</time>
      </trkpt>
      <trkpt lat="49.61542" lon="1.81798">
        <ele>193</ele>
        <time>2023-05-22T13:30:23Z</time>
      </trkpt>
      <trkpt lat="49.61551" lon="1.8174">
        <ele>193</ele>
        <time>2023-05-22T13:30:30Z</time>
      </trkpt>
      <trkpt lat="49.61556" lon="1.81684">
        <ele>192</ele>
        <time>2023-05-22T13:30:36Z</time>
      </trkpt>
      <trkpt lat="49.61559" lon="1.81663">
        <ele>192</ele>
        <time>2023-05-22T13:30:39Z</time>
      </trkpt>
      <trkpt lat="49.61571" lon="1.81611">
        <ele>191</ele>
        <time>2023-05-22T13:30:45Z</time>
      </trkpt>
      <trkpt lat="49.61645" lon="1.81379">
        <ele>189</ele>
        <time>2023-05-22T13:31:15Z</time>
      </trkpt>
      <trkpt lat="49.61684" lon="1.81241">
        <ele>188</ele>
        <time>2023-05-22T13:31:32Z</time>
      </trkpt>
      <trkpt lat="49.61714" lon="1.81121">
        <ele>189</ele>
        <time>2023-05-22T13:31:47Z</time>
      </trkpt>
      <trkpt lat="49.61734" lon="1.81046">
        <ele>190</ele>
        <time>2023-05-22T13:31:56Z</time>
      </trkpt>
      <trkpt lat="49.61781" lon="1.80889">
        <ele>190</ele>
        <time>2023-05-22T13:32:16Z</time>
      </trkpt>
      <trkpt lat="49.6179" lon="1.80842">
        <ele>190</ele>
        <time>2023-05-22T13:32:22Z</time>
      </trkpt>
      <trkpt lat="49.61797" lon="1.80767">
        <ele>190</ele>
        <time>2023-05-22T13:32:31Z</time>
      </trkpt>
      <trkpt lat="49.61801" lon="1.80647">
        <ele>191</ele>
        <time>2023-05-22T13:32:45Z</time>
      </trkpt>
      <trkpt lat="49.61812" lon="1.80533">
        <ele>192</ele>
        <time>2023-05-22T13:32:58Z</time>
      </trkpt>
      <trkpt lat="49.61823" lon="1.80499">
        <ele>192</ele>
        <time>2023-05-22T13:33:02Z</time>
      </trkpt>
      <trkpt lat="49.6184" lon="1.80457">
        <ele>193</ele>
        <time>2023-05-22T13:33:08Z</time>
      </trkpt>
      <trkpt lat="49.61941" lon="1.80257">
        <ele>198</ele>
        <time>2023-05-22T13:33:37Z</time>
      </trkpt>
      <trkpt lat="49.62021" lon="1.80086">
        <ele>199</ele>
        <time>2023-05-22T13:34:02Z</time>
      </trkpt>
      <trkpt lat="49.62047" lon="1.80035">
        <ele>200</ele>
        <time>2023-05-22T13:34:09Z</time>
      </trkpt>
      <trkpt lat="49.62063" lon="1.8">
        <ele>200</ele>
        <time>2023-05-22T13:34:14Z</time>
      </trkpt>
      <trkpt lat="49.6208" lon="1.79948">
        <ele>199</ele>
        <time>2023-05-22T13:34:21Z</time>
      </trkpt>
      <trkpt lat="49.62141" lon="1.79584">
        <ele>201</ele>
        <time>2023-05-22T13:35:04Z</time>
      </trkpt>
      <trkpt lat="49.62151" lon="1.79545">
        <ele>201</ele>
        <time>2023-05-22T13:35:09Z</time>
      </trkpt>
      <trkpt lat="49.62218" lon="1.79391">
        <ele>202</ele>
        <time>2023-05-22T13:35:30Z</time>
      </trkpt>
      <trkpt lat="49.62268" lon="1.79232">
        <ele>204</ele>
        <time>2023-05-22T13:35:51Z</time>
      </trkpt>
      <trkpt lat="49.62278" lon="1.79204">
        <ele>204</ele>
        <time>2023-05-22T13:35:54Z</time>
      </trkpt>
      <trkpt lat="49.62298" lon="1.79151">
        <ele>204</ele>
        <time>2023-05-22T13:36:01Z</time>
      </trkpt>
      <trkpt lat="49.62415" lon="1.79385">
        <ele>202</ele>
        <time>2023-05-22T13:36:35Z</time>
      </trkpt>
      <trkpt lat="49.62438" lon="1.79439">
        <ele>201</ele>
        <time>2023-05-22T13:36:43Z</time>
      </trkpt>
      <trkpt lat="49.626" lon="1.79847">
        <ele>196</ele>
        <time>2023-05-22T13:37:38Z</time>
      </trkpt>
      <trkpt lat="49.62617" lon="1.79894">
        <ele>197</ele>
        <time>2023-05-22T13:37:44Z</time>
      </trkpt>
      <trkpt lat="49.62652" lon="1.8">
        <ele>196</ele>
        <time>2023-05-22T13:37:58Z</time>
      </trkpt>
      <trkpt lat="49.62687" lon="1.80075">
        <ele>195</ele>
        <time>2023-05-22T13:38:09Z</time>
      </trkpt>
      <trkpt lat="49.62709" lon="1.80115">
        <ele>195</ele>
        <time>2023-05-22T13:38:15Z</time>
      </trkpt>
      <trkpt lat="49.62754" lon="1.80192">
        <ele>196</ele>
        <time>2023-05-22T13:38:27Z</time>
      </trkpt>
      <trkpt lat="49.62819" lon="1.80294">
        <ele>199</ele>
        <time>2023-05-22T13:38:43Z</time>
      </trkpt>
      <trkpt lat="49.62845" lon="1.80393">
        <ele>199</ele>
        <time>2023-05-22T13:38:55Z</time>
      </trkpt>
      <trkpt lat="49.62861" lon="1.80537">
        <ele>199</ele>
        <time>2023-05-22T13:39:12Z</time>
      </trkpt>
      <trkpt lat="49.6287" lon="1.807">
        <ele>198</ele>
        <time>2023-05-22T13:39:31Z</time>
      </trkpt>
      <trkpt lat="49.62884" lon="1.80852">
        <ele>197</ele>
        <time>2023-05-22T13:39:49Z</time>
      </trkpt>
      <trkpt lat="49.62894" lon="1.80988">
        <ele>195</ele>
        <time>2023-05-22T13:40:05Z</time>
      </trkpt>
      <trkpt lat="49.62909" lon="1.81043">
        <ele>194</ele>
        <time>2023-05-22T13:40:11Z</time>
      </trkpt>
      <trkpt lat="49.62948" lon="1.81153">
        <ele>192</ele>
        <time>2023-05-22T13:40:26Z</time>
      </trkpt>
      <trkpt lat="49.62982" lon="1.81354">
        <ele>190</ele>
        <time>2023-05-22T13:40:50Z</time>
      </trkpt>
      <trkpt lat="49.63028" lon="1.8149">
        <ele>187</ele>
        <time>2023-05-22T13:41:08Z</time>
      </trkpt>
      <trkpt lat="49.63041" lon="1.81582">
        <ele>185</ele>
        <time>2023-05-22T13:41:18Z</time>
      </trkpt>
      <trkpt lat="49.63061" lon="1.81868">
        <ele>179</ele>
        <time>2023-05-22T13:41:52Z</time>
      </trkpt>
      <trkpt lat="49.6307" lon="1.8198">
        <ele>179</ele>
        <time>2023-05-22T13:42:05Z</time>
      </trkpt>
      <trkpt lat="49.63102" lon="1.82017">
        <ele>176</ele>
        <time>2023-05-22T13:42:12Z</time>
      </trkpt>
      <trkpt lat="49.63133" lon="1.82049">
        <ele>174</ele>
        <time>2023-05-22T13:42:18Z</time>
      </trkpt>
      <trkpt lat="49.63164" lon="1.82063">
        <ele>172</ele>
        <time>2023-05-22T13:42:24Z</time>
      </trkpt>
      <trkpt lat="49.63176" lon="1.82073">
        <ele>172</ele>
        <time>2023-05-22T13:42:26Z</time>
      </trkpt>
      <trkpt lat="49.63186" lon="1.82101">
        <ele>172</ele>
        <time>2023-05-22T13:42:30Z</time>
      </trkpt>
      <trkpt lat="49.6319" lon="1.82137">
        <ele>171</ele>
        <time>2023-05-22T13:42:34Z</time>
      </trkpt>
      <trkpt lat="49.63186" lon="1.8217">
        <ele>170</ele>
        <time>2023-05-22T13:42:38Z</time>
      </trkpt>
      <trkpt lat="49.63168" lon="1.82261">
        <ele>170</ele>
        <time>2023-05-22T13:42:49Z</time>
      </trkpt>
      <trkpt lat="49.6316" lon="1.82342">
        <ele>170</ele>
        <time>2023-05-22T13:42:59Z</time>
      </trkpt>
      <trkpt lat="49.63165" lon="1.8241">
        <ele>172</ele>
        <time>2023-05-22T13:43:07Z</time>
      </trkpt>
      <trkpt lat="49.632" lon="1.82496">
        <ele>178</ele>
        <time>2023-05-22T13:43:18Z</time>
      </trkpt>
      <trkpt lat="49.63264" lon="1.82518">
        <ele>187</ele>
        <time>2023-05-22T13:43:30Z</time>
      </trkpt>
      <trkpt lat="49.63299" lon="1.82534">
        <ele>190</ele>
        <time>2023-05-22T13:43:36Z</time>
      </trkpt>
      <trkpt lat="49.63354" lon="1.82619">
        <ele>191</ele>
        <time>2023-05-22T13:43:50Z</time>
      </trkpt>
      <trkpt lat="49.63438" lon="1.82681">
        <ele>188</ele>
        <time>2023-05-22T13:44:07Z</time>
      </trkpt>
      <trkpt lat="49.63537" lon="1.82764">
        <ele>189</ele>
        <time>2023-05-22T13:44:27Z</time>
      </trkpt>
      <trkpt lat="49.63599" lon="1.82865">
        <ele>191</ele>
        <time>2023-05-22T13:44:43Z</time>
      </trkpt>
      <trkpt lat="49.63639" lon="1.82949">
        <ele>193</ele>
        <time>2023-05-22T13:44:55Z</time>
      </trkpt>
      <trkpt lat="49.63689" lon="1.83098">
        <ele>195</ele>
        <time>2023-05-22T13:45:14Z</time>
      </trkpt>
      <trkpt lat="49.63738" lon="1.8316">
        <ele>196</ele>
        <time>2023-05-22T13:45:26Z</time>
      </trkpt>
      <trkpt lat="49.63885" lon="1.83325">
        <ele>198</ele>
        <time>2023-05-22T13:45:58Z</time>
      </trkpt>
      <trkpt lat="49.63916" lon="1.83373">
        <ele>199</ele>
        <time>2023-05-22T13:46:06Z</time>
      </trkpt>
      <trkpt lat="49.63923" lon="1.83402">
        <ele>200</ele>
        <time>2023-05-22T13:46:09Z</time>
      </trkpt>
      <trkpt lat="49.6394" lon="1.83453">
        <ele>200</ele>
        <time>2023-05-22T13:46:16Z</time>
      </trkpt>
      <trkpt lat="49.63965" lon="1.83486">
        <ele>201</ele>
        <time>2023-05-22T13:46:22Z</time>
      </trkpt>
      <trkpt lat="49.64067" lon="1.83591">
        <ele>200</ele>
        <time>2023-05-22T13:46:44Z</time>
      </trkpt>
      <trkpt lat="49.64184" lon="1.83702">
        <ele>198</ele>
        <time>2023-05-22T13:47:08Z</time>
      </trkpt>
      <trkpt lat="49.64195" lon="1.83716">
        <ele>198</ele>
        <time>2023-05-22T13:47:10Z</time>
      </trkpt>
      <trkpt lat="49.64215" lon="1.83744">
        <ele>198</ele>
        <time>2023-05-22T13:47:15Z</time>
      </trkpt>
      <trkpt lat="49.64252" lon="1.83839">
        <ele>197</ele>
        <time>2023-05-22T13:47:28Z</time>
      </trkpt>
      <trkpt lat="49.643" lon="1.83945">
        <ele>197</ele>
        <time>2023-05-22T13:47:43Z</time>
      </trkpt>
      <trkpt lat="49.6431" lon="1.83962">
        <ele>197</ele>
        <time>2023-05-22T13:47:46Z</time>
      </trkpt>
      <trkpt lat="49.64365" lon="1.84041">
        <ele>199</ele>
        <time>2023-05-22T13:47:59Z</time>
      </trkpt>
      <trkpt lat="49.64384" lon="1.8407">
        <ele>200</ele>
        <time>2023-05-22T13:48:04Z</time>
      </trkpt>
      <trkpt lat="49.6442" lon="1.84141">
        <ele>202</ele>
        <time>2023-05-22T13:48:14Z</time>
      </trkpt>
    </trkseg>
  </trk>
</gpx>